Main page
METAR-TAF:

METAR-TAF

Airports :

General Ulpiano Paez Airport

Salinas, Ecuador

latitude: 02-12-18S, longitude: 080-59-20W, elevation: 5 m

Current weather observation

The report was made 41 minutes ago, at 20:00 UTC
Wind 7 kt from the South/Southwest
Temperature 24°C
Humidity 78%
Pressure 1009 hPa
Visibility 10 km or more
Scattered clouds at a height of 800 ft
Broken clouds at a height of 1700 ft

METAR: SESA 162000Z 21007KT 9999 SCT008 BKN017 24/20 Q1009 RMK A2982

Time: 15:41 (20:41 UTC)


TAF: missing

Weather observations and forecasts of more than 4000 airports (METAR and TAF reports).

The available stations are represented by yellow and red dots on the map.

Hover mouse over dot to see the name of the station.

Then click to see weather observations and forecasts.

To change the map : click on the green buttons with a black cross to zoom in, on the green button with a dash to zoom out, or on the green arrows for adjacent maps.


METAR-TAF: